createdAt,value
2022-08-07T00:01:42.896Z,101109.55
2022-08-07T00:06:15.982Z,101112.54
2022-08-07T00:11:20.061Z,101116.63
2022-08-07T00:16:35.573Z,101117.92
2022-08-07T00:21:57.179Z,101118.00
2022-08-07T00:27:07.485Z,101123.29
2022-08-07T00:32:14.113Z,101124.38
2022-08-07T00:37:18.719Z,101123.07
2022-08-07T00:42:29.249Z,101120.18
2022-08-07T00:48:08.737Z,101120.23
2022-08-07T00:52:55.186Z,101122.34
2022-08-07T00:57:58.056Z,101120.77
2022-08-07T01:03:03.645Z,101118.89
2022-08-07T01:08:09.448Z,101118.92
2022-08-07T01:13:12.705Z,101116.48
2022-08-07T01:18:19.760Z,101115.05
2022-08-07T01:23:26.881Z,101113.82
2022-08-07T01:28:45.838Z,101109.17
2022-08-07T01:33:56.021Z,101107.98
2022-08-07T01:39:00.828Z,101106.42
2022-08-07T01:44:04.098Z,101110.09
2022-08-07T01:49:07.146Z,101111.87
2022-08-07T01:54:33.369Z,101110.34
2022-08-07T01:59:52.257Z,101111.96
2022-08-07T02:05:06.289Z,101112.01
2022-08-07T02:10:09.702Z,101108.58
2022-08-07T02:15:23.057Z,101105.00
2022-08-07T02:20:26.070Z,101108.21
2022-08-07T02:26:30.436Z,101113.46
2022-08-07T02:30:57.879Z,101114.00
2022-08-07T02:36:28.181Z,101112.46
2022-08-07T02:41:36.976Z,101113.76
2022-08-07T02:46:46.916Z,101109.98
2022-08-07T02:51:59.137Z,101114.88
2022-08-07T02:57:03.449Z,101120.99
2022-08-07T03:02:10.372Z,101115.25
2022-08-07T03:07:15.962Z,101116.33
2022-08-07T03:12:22.438Z,101116.50
2022-08-07T03:17:36.350Z,101109.16
2022-08-07T03:22:59.064Z,101108.77
2022-08-07T03:28:09.546Z,101108.94
2022-08-07T03:33:26.877Z,101108.61
2022-08-07T03:38:37.613Z,101111.20
2022-08-07T03:43:57.138Z,101108.14
2022-08-07T03:49:03.507Z,101115.52
2022-08-07T03:54:35.172Z,101114.48
2022-08-07T03:59:32.441Z,101111.23
2022-08-07T04:04:35.753Z,101116.48
2022-08-07T04:09:44.658Z,101117.83
2022-08-07T04:14:49.385Z,101114.24
2022-08-07T04:19:54.382Z,101117.70
2022-08-07T04:25:01.497Z,101123.91
2022-08-07T04:30:13.440Z,101126.49
2022-08-07T04:35:35.076Z,101129.34
2022-08-07T04:40:51.954Z,101125.20
2022-08-07T04:46:26.072Z,101128.67
2022-08-07T04:51:37.366Z,101122.31
2022-08-07T04:58:12.050Z,101111.40
2022-08-07T05:02:38.061Z,101130.50
2022-08-07T05:08:45.450Z,101142.93
2022-08-07T05:14:54.548Z,101148.39
2022-08-07T05:19:44.088Z,101144.77
2022-08-07T05:24:51.355Z,101144.23
2022-08-07T05:29:56.724Z,101138.39
2022-08-07T05:35:03.220Z,101135.59
2022-08-07T05:40:18.948Z,101135.20
2022-08-07T05:45:46.932Z,101131.73
2022-08-07T05:50:50.585Z,101128.26
2022-08-07T05:56:03.235Z,101130.70
2022-08-07T06:01:11.338Z,101126.60
2022-08-07T06:06:17.366Z,101126.47
2022-08-07T06:11:22.114Z,101129.17
2022-08-07T06:16:33.919Z,101129.08
2022-08-07T06:22:11.755Z,101128.04
2022-08-07T06:27:00.041Z,101123.58
2022-08-07T06:32:09.482Z,101124.69
2022-08-07T06:37:17.071Z,101119.59
2022-08-07T06:42:35.348Z,101134.79
2022-08-07T06:47:47.893Z,101140.95
2022-08-07T06:52:55.809Z,101145.24
2022-08-07T06:58:04.314Z,101144.68
2022-08-07T07:03:13.681Z,101141.05
2022-08-07T07:08:18.813Z,101131.90
2022-08-07T07:13:55.480Z,101126.02
2022-08-07T07:19:04.181Z,101127.73
2022-08-07T07:24:26.044Z,101123.14
2022-08-07T07:29:57.298Z,101119.98
2022-08-07T07:35:04.010Z,101122.02
2022-08-07T07:40:14.733Z,101122.67
2022-08-07T07:45:24.518Z,101120.30
2022-08-07T07:50:50.428Z,101116.29
2022-08-07T07:56:00.890Z,101112.00
2022-08-07T08:02:02.264Z,101109.98
2022-08-07T08:06:29.872Z,101110.17
2022-08-07T08:11:59.464Z,101113.78
2022-08-07T08:17:55.497Z,101111.64
2022-08-07T08:22:54.103Z,101116.27
2022-08-07T08:28:03.627Z,101120.27
2022-08-07T08:33:10.513Z,101121.02
2022-08-07T08:38:25.921Z,101125.05
2022-08-07T08:43:55.766Z,101127.01
2022-08-07T08:49:09.817Z,101124.18
2022-08-07T08:54:36.947Z,101123.56
2022-08-07T08:59:51.209Z,101120.14
2022-08-07T09:05:36.999Z,101120.70
2022-08-07T09:11:00.333Z,101117.17
2022-08-07T09:16:39.833Z,101115.41
2022-08-07T09:24:27.560Z,101115.34
2022-08-07T09:30:02.196Z,101115.57
2022-08-07T09:34:09.969Z,101112.68
2022-08-07T09:39:54.627Z,101110.88
2022-08-07T09:47:24.425Z,101106.70
2022-08-07T09:52:09.990Z,101100.09
2022-08-07T09:57:30.589Z,101098.12
2022-08-07T10:02:56.415Z,101092.84
2022-08-07T10:08:06.150Z,101091.98
2022-08-07T10:13:55.623Z,101088.46
2022-08-07T10:19:04.062Z,101084.83
2022-08-07T10:24:22.293Z,101075.70
2022-08-07T10:30:12.463Z,101074.77
2022-08-07T10:35:55.674Z,101074.69
2022-08-07T10:41:07.859Z,101064.93
2022-08-07T10:46:23.445Z,101062.29
2022-08-07T10:52:02.004Z,101051.81
2022-08-07T10:57:34.576Z,101047.06
2022-08-07T11:03:28.100Z,101044.14
2022-08-07T11:09:11.049Z,101036.27
2022-08-07T11:14:46.028Z,101035.71
2022-08-07T11:20:03.369Z,101033.27
2022-08-07T11:25:16.579Z,101032.48
2022-08-07T11:30:41.594Z,101031.27
2022-08-07T11:36:00.675Z,101025.10
2022-08-07T11:41:18.307Z,101023.49
2022-08-07T11:47:10.178Z,101020.37
2022-08-07T11:52:28.945Z,101022.34
2022-08-07T11:58:00.443Z,101017.57
2022-08-07T12:03:41.555Z,101022.21
2022-08-07T12:09:07.436Z,101020.92
2022-08-07T12:14:24.739Z,101019.65
2022-08-07T12:20:02.704Z,101011.45
2022-08-07T12:26:05.473Z,101012.63
2022-08-07T12:31:52.390Z,101008.46
2022-08-07T12:36:58.790Z,101008.25
2022-08-07T12:42:03.292Z,101013.26
2022-08-07T12:47:38.572Z,101014.95
2022-08-07T12:53:17.799Z,101008.42
2022-08-07T12:58:28.103Z,101010.11
2022-08-07T13:04:13.692Z,101000.73
2022-08-07T13:10:28.582Z,101000.83
2022-08-07T13:16:10.173Z,100997.95
2022-08-07T13:21:23.572Z,100990.66
2022-08-07T13:27:20.822Z,100989.13
2022-08-07T13:32:39.004Z,100984.30
2022-08-07T13:37:59.144Z,100983.41
2022-08-07T13:43:12.428Z,100984.55
2022-08-07T13:48:27.375Z,100979.63
2022-08-07T13:53:59.377Z,100977.21
2022-08-07T13:59:10.366Z,100976.85
2022-08-07T14:04:17.017Z,100971.64
2022-08-07T14:10:08.423Z,100971.67
2022-08-07T14:15:00.578Z,100969.61
2022-08-07T14:20:42.411Z,100971.58
2022-08-07T14:25:46.142Z,100964.40
2022-08-07T14:30:52.644Z,100962.64
2022-08-07T14:35:59.773Z,100960.27
2022-08-07T14:41:15.111Z,100960.77
2022-08-07T14:52:04.701Z,100960.92
2022-08-07T14:57:19.704Z,100958.71
2022-08-07T15:02:34.713Z,100955.20
2022-08-07T15:13:17.624Z,100951.73
2022-08-07T15:25:15.977Z,100945.20
2022-08-07T15:30:08.905Z,100944.42
2022-08-07T15:34:59.120Z,100943.69
2022-08-07T15:45:56.154Z,100934.71
2022-08-07T15:51:10.082Z,100935.04
2022-08-07T15:56:16.281Z,100930.57
2022-08-07T16:01:24.177Z,100936.84
2022-08-07T16:06:58.620Z,100934.43
2022-08-07T16:12:12.235Z,100927.14
2022-08-07T16:18:01.789Z,100927.74
2022-08-07T16:23:11.762Z,100926.39
2022-08-07T16:30:05.619Z,100925.17
2022-08-07T16:34:10.443Z,100925.56
2022-08-07T16:39:49.483Z,100920.39
2022-08-07T16:51:52.105Z,100922.89
2022-08-07T16:57:03.816Z,100927.50
2022-08-07T17:02:53.611Z,100924.75
2022-08-07T17:08:04.084Z,100923.61
2022-08-07T17:13:41.390Z,100924.20
2022-08-07T17:19:01.972Z,100928.65
2022-08-07T17:24:31.980Z,100927.59
2022-08-07T17:30:16.082Z,100926.36
2022-08-07T17:35:59.256Z,100933.93
2022-08-07T17:42:04.893Z,100932.16
2022-08-07T17:47:03.062Z,100938.70
2022-08-07T17:52:35.317Z,100942.54
2022-08-07T17:58:04.274Z,100943.01
2022-08-07T18:03:25.587Z,100947.05
2022-08-07T18:09:05.426Z,100951.31
2022-08-07T18:14:29.180Z,100951.66
2022-08-07T18:21:07.142Z,100959.01
2022-08-07T18:25:24.163Z,100967.16
2022-08-07T18:30:55.584Z,100968.09
2022-08-07T18:36:44.396Z,100970.32
2022-08-07T18:42:21.918Z,100978.45
2022-08-07T18:47:50.157Z,100987.33
2022-08-07T18:53:36.517Z,100998.90
2022-08-07T18:59:47.456Z,101003.55
2022-08-07T19:05:20.025Z,101008.63
2022-08-07T19:10:49.567Z,101011.10
2022-08-07T19:16:43.087Z,101013.35
2022-08-07T19:21:47.833Z,101014.20
2022-08-07T19:28:58.035Z,101021.93
2022-08-07T19:32:36.873Z,101027.71
2022-08-07T19:37:56.759Z,101027.43
2022-08-07T19:43:12.824Z,101031.38
2022-08-07T19:48:42.992Z,101032.27
2022-08-07T19:54:35.666Z,101037.21
2022-08-07T19:59:41.266Z,101037.64
2022-08-07T20:04:49.431Z,101041.38
2022-08-07T20:10:37.126Z,101045.14
2022-08-07T20:15:32.874Z,101048.86
2022-08-07T20:20:43.602Z,101053.59
2022-08-07T20:25:50.747Z,101057.73
2022-08-07T20:30:56.156Z,101057.64
2022-08-07T20:36:07.896Z,101068.64
2022-08-07T20:41:13.603Z,101069.14
2022-08-07T20:46:32.394Z,101070.27
2022-08-07T20:51:40.601Z,101075.01
2022-08-07T20:56:56.674Z,101071.94
2022-08-07T21:02:23.057Z,101073.89
2022-08-07T21:07:36.356Z,101070.20
2022-08-07T21:12:43.004Z,101068.23
2022-08-07T21:18:03.403Z,101074.86
2022-08-07T21:23:27.849Z,101077.09
2022-08-07T21:28:51.120Z,101079.38
2022-08-07T21:34:26.617Z,101085.04
2022-08-07T21:40:07.881Z,101082.69
2022-08-07T21:46:09.131Z,101082.95
2022-08-07T21:51:25.823Z,101084.99
2022-08-07T21:56:37.864Z,101082.02
2022-08-07T22:02:10.747Z,101082.48
2022-08-07T22:07:31.716Z,101080.46
2022-08-07T22:12:54.251Z,101076.14
2022-08-07T22:18:03.193Z,101073.08
2022-08-07T22:23:32.006Z,101072.06
2022-08-07T22:28:48.223Z,101069.75
2022-08-07T22:34:12.909Z,101066.95
2022-08-07T22:39:53.111Z,101064.14
2022-08-07T22:45:11.072Z,101060.63
2022-08-07T22:50:51.940Z,101056.08
2022-08-07T22:56:16.119Z,101054.73
2022-08-07T23:01:51.107Z,101055.63
2022-08-07T23:07:25.822Z,101053.98
2022-08-07T23:12:41.470Z,101049.48
2022-08-07T23:18:09.430Z,101049.95
2022-08-07T23:24:06.184Z,101051.11
2022-08-07T23:29:43.994Z,101049.53
2022-08-07T23:34:42.833Z,101052.41
2022-08-07T23:40:24.337Z,101054.64
2022-08-07T23:46:02.744Z,101051.23
2022-08-07T23:52:57.870Z,101055.53
2022-08-07T23:57:04.361Z,101058.81
